createdAt,value
2023-01-02T00:00:57.557Z,6.57
2023-01-02T00:03:24.103Z,6.85
2023-01-02T00:05:50.446Z,6.87
2023-01-02T00:08:16.777Z,6.28
2023-01-02T00:10:43.104Z,6.45
2023-01-02T00:13:09.437Z,6.15
2023-01-02T00:15:35.855Z,6.40
2023-01-02T00:18:02.164Z,6.15
2023-01-02T00:20:28.501Z,6.00
2023-01-02T00:22:54.805Z,6.35
2023-01-02T00:25:21.118Z,6.70
2023-01-02T00:27:47.427Z,6.57
2023-01-02T00:30:13.771Z,6.00
2023-01-02T00:32:40.105Z,6.47
2023-01-02T00:35:06.423Z,5.87
2023-01-02T00:37:32.755Z,6.03
2023-01-02T00:39:59.064Z,6.07
2023-01-02T00:42:25.433Z,5.80
2023-01-02T00:44:51.743Z,5.95
2023-01-02T00:47:18.059Z,6.18
2023-01-02T00:49:44.368Z,6.18
2023-01-02T00:52:10.690Z,5.75
2023-01-02T00:54:37.008Z,5.70
2023-01-02T00:57:03.362Z,6.22
2023-01-02T00:59:29.769Z,5.75
2023-01-02T01:01:56.151Z,5.57
2023-01-02T01:04:22.586Z,5.82
2023-01-02T01:06:48.984Z,5.90
2023-01-02T01:09:15.332Z,5.47
2023-01-02T01:11:41.678Z,5.95
2023-01-02T01:14:08.030Z,6.10
2023-01-02T01:16:34.460Z,6.07
2023-01-02T01:19:00.851Z,6.15
2023-01-02T01:21:27.279Z,5.87
2023-01-02T01:23:53.620Z,5.85
2023-01-02T01:26:20.469Z,5.90
2023-01-02T01:28:46.797Z,6.15
2023-01-02T01:31:13.202Z,5.85
2023-01-02T01:33:39.590Z,6.20
2023-01-02T01:36:05.922Z,5.87
2023-01-02T01:38:32.243Z,6.35
2023-01-02T01:40:58.579Z,6.15
2023-01-02T01:43:24.893Z,6.37
2023-01-02T01:45:51.236Z,6.40
2023-01-02T01:48:17.577Z,6.00
2023-01-02T01:50:43.955Z,6.00
2023-01-02T01:53:10.279Z,6.12
2023-01-02T01:55:36.601Z,5.68
2023-01-02T01:58:02.931Z,5.60
2023-01-02T02:00:29.246Z,5.80
2023-01-02T02:02:55.664Z,6.40
2023-01-02T02:05:22.060Z,6.75
2023-01-02T02:07:48.387Z,6.30
2023-01-02T02:10:14.707Z,7.47
2023-01-02T02:12:41.115Z,6.03
2023-01-02T02:15:07.425Z,6.35
2023-01-02T02:17:33.802Z,7.40
2023-01-02T02:20:00.271Z,6.80
2023-01-02T02:22:26.611Z,6.87
2023-01-02T02:24:52.944Z,7.18
2023-01-02T02:27:19.306Z,6.85
2023-01-02T02:29:45.639Z,7.07
2023-01-02T02:32:12.060Z,6.78
2023-01-02T02:34:38.399Z,6.30
2023-01-02T02:37:04.719Z,6.80
2023-01-02T02:39:31.036Z,6.65
2023-01-02T02:41:57.835Z,7.12
2023-01-02T02:44:24.185Z,6.37
2023-01-02T02:46:50.500Z,6.57
2023-01-02T02:49:16.858Z,6.60
2023-01-02T02:51:43.165Z,6.57
2023-01-02T02:54:09.673Z,6.40
2023-01-02T02:56:35.977Z,6.78
2023-01-02T02:59:02.298Z,7.07
2023-01-02T03:01:30.819Z,6.80
2023-01-02T03:03:57.394Z,7.80
2023-01-02T03:06:23.718Z,6.35
2023-01-02T03:08:50.046Z,6.45
2023-01-02T03:11:16.388Z,6.40
2023-01-02T03:13:42.742Z,6.70
2023-01-02T03:16:09.103Z,6.50
2023-01-02T03:18:35.404Z,6.50
2023-01-02T03:21:01.711Z,6.12
2023-01-02T03:23:28.053Z,6.70
2023-01-02T03:25:54.427Z,6.30
2023-01-02T03:28:20.745Z,6.35
2023-01-02T03:30:47.085Z,7.40
2023-01-02T03:33:13.388Z,6.78
2023-01-02T03:35:39.739Z,6.65
2023-01-02T03:38:06.044Z,6.35
2023-01-02T03:40:32.356Z,6.62
2023-01-02T03:42:58.695Z,6.57
2023-01-02T03:45:25.014Z,6.40
2023-01-02T03:47:51.360Z,6.60
2023-01-02T03:50:17.685Z,6.62
2023-01-02T03:52:44.009Z,6.05
2023-01-02T03:55:10.340Z,6.22
2023-01-02T03:57:36.639Z,5.70
2023-01-02T04:00:03.007Z,6.40
2023-01-02T04:02:29.501Z,6.00
2023-01-02T04:04:55.982Z,6.18
2023-01-02T04:07:22.325Z,5.87
2023-01-02T04:09:48.673Z,5.37
2023-01-02T04:12:14.986Z,6.25
2023-01-02T04:14:41.291Z,6.82
2023-01-02T04:17:10.757Z,6.57
2023-01-02T04:19:37.058Z,5.55
2023-01-02T04:22:04.911Z,6.50
2023-01-02T04:24:31.204Z,7.30
2023-01-02T04:26:57.527Z,6.97
2023-01-02T04:29:23.865Z,7.30
2023-01-02T04:31:50.185Z,7.10
2023-01-02T04:34:16.566Z,6.60
2023-01-02T04:36:42.878Z,6.87
2023-01-02T04:39:09.235Z,6.90
2023-01-02T04:41:35.565Z,6.55
2023-01-02T04:44:01.931Z,6.75
2023-01-02T04:46:28.326Z,6.78
2023-01-02T04:48:54.992Z,7.47
2023-01-02T04:51:21.323Z,6.68
2023-01-02T04:53:47.641Z,6.57
2023-01-02T04:56:14.245Z,6.60
2023-01-02T04:58:40.582Z,7.18
2023-01-02T05:01:06.909Z,6.75
2023-01-02T05:03:33.264Z,7.12
2023-01-02T05:05:59.598Z,7.03
2023-01-02T05:08:25.932Z,7.80
2023-01-02T05:10:52.264Z,7.45
2023-01-02T05:13:18.598Z,6.70
2023-01-02T05:15:45.006Z,7.80
2023-01-02T05:18:11.340Z,7.07
2023-01-02T05:20:37.653Z,8.30
2023-01-02T05:23:22.936Z,8.45
2023-01-02T05:25:49.267Z,8.50
2023-01-02T05:28:15.571Z,7.80
2023-01-02T05:30:41.882Z,8.13
2023-01-02T05:33:08.208Z,8.25
2023-01-02T05:35:34.540Z,8.35
2023-01-02T05:38:00.859Z,7.53
2023-01-02T05:40:27.172Z,8.20
2023-01-02T05:42:53.488Z,8.52
2023-01-02T05:45:19.807Z,8.25
2023-01-02T05:47:46.109Z,7.72
2023-01-02T05:50:12.420Z,8.60
2023-01-02T05:52:44.921Z,8.38
2023-01-02T05:55:12.052Z,7.70
2023-01-02T05:57:38.370Z,7.95
2023-01-02T06:00:04.774Z,8.32
2023-01-02T06:02:31.261Z,8.00
2023-01-02T06:04:57.635Z,8.48
2023-01-02T06:07:23.953Z,7.55
2023-01-02T06:09:50.286Z,8.25
2023-01-02T06:12:16.629Z,8.43
2023-01-02T06:14:42.954Z,8.00
2023-01-02T06:17:09.280Z,8.43
2023-01-02T06:19:35.617Z,7.45
2023-01-02T06:22:01.925Z,9.23
2023-01-02T06:24:28.277Z,8.70
2023-01-02T06:26:55.824Z,8.23
2023-01-02T06:29:22.148Z,8.18
2023-01-02T06:31:51.516Z,8.77
2023-01-02T06:34:18.007Z,8.93
2023-01-02T06:36:44.335Z,9.00
2023-01-02T06:39:10.642Z,8.93
2023-01-02T06:41:36.989Z,8.82
2023-01-02T06:44:03.307Z,8.57
2023-01-02T06:46:29.637Z,8.82
2023-01-02T06:48:55.945Z,9.10
2023-01-02T06:51:22.294Z,9.60
2023-01-02T06:53:48.689Z,9.00
2023-01-02T06:56:15.003Z,10.23
2023-01-02T06:58:41.365Z,10.20
2023-01-02T07:01:07.734Z,9.85
2023-01-02T07:03:34.074Z,9.95
2023-01-02T07:06:00.441Z,10.25
2023-01-02T07:08:26.749Z,9.90
2023-01-02T07:10:53.257Z,9.52
2023-01-02T07:13:19.618Z,11.45
2023-01-02T07:15:45.946Z,9.68
2023-01-02T07:18:12.281Z,10.63
2023-01-02T07:20:38.612Z,10.68
2023-01-02T07:23:04.975Z,10.40
2023-01-02T07:25:31.301Z,10.20
2023-01-02T07:27:57.678Z,10.02
2023-01-02T07:30:23.979Z,10.43
2023-01-02T07:32:50.285Z,10.30
2023-01-02T07:35:16.592Z,9.95
2023-01-02T07:37:42.892Z,10.57
2023-01-02T07:40:09.196Z,9.75
2023-01-02T07:42:35.500Z,9.50
2023-01-02T07:45:01.830Z,9.60
2023-01-02T07:47:28.178Z,9.85
2023-01-02T07:49:54.500Z,9.35
2023-01-02T07:52:20.805Z,9.18
2023-01-02T07:54:47.198Z,9.63
2023-01-02T07:57:13.727Z,9.43
2023-01-02T07:59:40.092Z,9.80
2023-01-02T08:02:06.543Z,9.65
2023-01-02T08:04:33.000Z,9.45
2023-01-02T08:06:59.380Z,10.50
2023-01-02T08:09:25.707Z,9.82
2023-01-02T08:11:52.025Z,9.98
2023-01-02T08:14:23.192Z,9.05
2023-01-02T08:16:50.075Z,10.10
2023-01-02T08:19:16.541Z,10.05
2023-01-02T08:21:42.922Z,9.52
2023-01-02T08:24:09.299Z,9.50
2023-01-02T08:26:35.637Z,9.52
2023-01-02T08:29:02.159Z,10.10
2023-01-02T08:31:28.520Z,9.38
2023-01-02T08:33:54.913Z,9.00
2023-01-02T08:36:21.268Z,9.50
2023-01-02T08:38:47.670Z,8.90
2023-01-02T08:41:15.393Z,8.85
2023-01-02T08:43:41.764Z,10.43
2023-01-02T08:46:08.133Z,9.23
2023-01-02T08:48:34.553Z,9.93
2023-01-02T08:51:00.860Z,10.13
2023-01-02T08:53:27.207Z,9.77
2023-01-02T08:55:53.532Z,9.98
2023-01-02T08:58:19.855Z,9.00
2023-01-02T09:00:46.197Z,9.13
2023-01-02T09:03:12.704Z,9.63
2023-01-02T09:05:39.115Z,9.10
2023-01-02T09:08:05.420Z,8.80
2023-01-02T09:10:31.742Z,9.30
2023-01-02T09:12:59.275Z,9.70
2023-01-02T09:15:25.759Z,8.55
2023-01-02T09:17:52.262Z,8.38
2023-01-02T09:20:18.709Z,9.20
2023-01-02T09:22:45.017Z,8.88
2023-01-02T09:25:11.332Z,8.80
2023-01-02T09:27:37.672Z,8.60
2023-01-02T09:30:04.024Z,8.77
2023-01-02T09:32:30.364Z,7.95
2023-01-02T09:34:56.677Z,7.55
2023-01-02T09:37:23.015Z,7.80
2023-01-02T09:39:49.340Z,8.13
2023-01-02T09:42:15.683Z,9.48
2023-01-02T09:44:42.086Z,8.75
2023-01-02T09:47:08.389Z,9.27
2023-01-02T09:49:34.709Z,8.00
2023-01-02T09:52:01.046Z,7.93
2023-01-02T09:54:27.364Z,9.13
2023-01-02T09:56:53.732Z,7.30
2023-01-02T09:59:20.039Z,7.43
2023-01-02T10:01:46.387Z,8.90
2023-01-02T10:04:12.750Z,8.43
2023-01-02T10:06:39.258Z,8.45
2023-01-02T10:09:05.573Z,8.32
2023-01-02T10:11:31.915Z,8.15
2023-01-02T10:16:44.560Z,7.62
2023-01-02T10:19:10.898Z,8.00
2023-01-02T10:21:37.291Z,8.07
2023-01-02T10:24:03.678Z,8.15
2023-01-02T10:26:30.838Z,8.23
2023-01-02T10:28:57.740Z,7.82
2023-01-02T10:31:24.108Z,8.75
2023-01-02T10:33:50.429Z,7.62
2023-01-02T10:36:16.769Z,7.78
2023-01-02T10:38:43.099Z,8.77
2023-01-02T10:41:09.430Z,9.00
2023-01-02T10:43:37.172Z,8.15
2023-01-02T10:46:03.601Z,7.78
2023-01-02T10:48:29.919Z,8.13
2023-01-02T10:50:56.245Z,8.52
2023-01-02T10:53:22.697Z,7.57
2023-01-02T10:55:49.036Z,8.00
2023-01-02T10:58:15.348Z,7.25
2023-01-02T11:00:41.717Z,8.13
2023-01-02T11:03:08.159Z,6.68
2023-01-02T11:05:34.487Z,7.78
2023-01-02T11:08:00.822Z,7.80
2023-01-02T11:10:27.133Z,7.57
2023-01-02T11:12:53.586Z,7.78
2023-01-02T11:15:19.964Z,8.13
2023-01-02T11:17:46.279Z,7.90
2023-01-02T11:20:12.615Z,7.00
2023-01-02T11:22:38.929Z,7.10
2023-01-02T11:25:05.654Z,8.20
2023-01-02T11:27:31.958Z,8.05
2023-01-02T11:29:58.264Z,7.68
2023-01-02T11:32:24.579Z,8.45
2023-01-02T11:34:51.120Z,7.37
2023-01-02T11:37:17.509Z,7.47
2023-01-02T11:39:43.903Z,6.72
2023-01-02T11:42:29.207Z,8.15
2023-01-02T11:44:55.504Z,7.47
2023-01-02T11:47:21.942Z,7.40
2023-01-02T11:49:48.934Z,7.12
2023-01-02T11:52:15.268Z,6.93
2023-01-02T11:54:41.759Z,7.60
2023-01-02T11:57:08.092Z,7.37
2023-01-02T11:59:34.418Z,8.13
2023-01-02T12:02:00.957Z,7.72
2023-01-02T12:04:27.514Z,7.05
2023-01-02T12:06:53.857Z,6.97
2023-01-02T12:09:20.211Z,7.50
2023-01-02T12:11:46.557Z,6.62
2023-01-02T12:14:12.909Z,6.55
2023-01-02T12:16:39.291Z,7.15
2023-01-02T12:19:05.685Z,7.00
2023-01-02T12:21:31.992Z,7.28
2023-01-02T12:23:58.498Z,6.43
2023-01-02T12:26:26.119Z,7.10
2023-01-02T12:28:52.434Z,7.45
2023-01-02T12:31:18.862Z,7.03
2023-01-02T12:33:45.256Z,7.35
2023-01-02T12:36:11.635Z,6.78
2023-01-02T12:38:37.989Z,7.22
2023-01-02T12:41:04.327Z,6.87
2023-01-02T12:43:30.670Z,6.55
2023-01-02T12:45:57.032Z,7.62
2023-01-02T12:48:23.381Z,6.80
2023-01-02T12:50:49.693Z,6.80
2023-01-02T12:53:16.031Z,6.95
2023-01-02T12:55:42.367Z,7.22
2023-01-02T12:58:08.679Z,6.45
2023-01-02T13:00:34.985Z,7.00
2023-01-02T13:03:01.636Z,6.82
2023-01-02T13:05:27.980Z,7.68
2023-01-02T13:07:54.347Z,7.53
2023-01-02T13:10:20.673Z,8.32
2023-01-02T13:12:47.001Z,8.07
2023-01-02T13:15:13.355Z,7.57
2023-01-02T13:17:39.739Z,7.15
2023-01-02T13:20:06.055Z,7.03
2023-01-02T13:22:32.404Z,6.37
2023-01-02T13:24:58.719Z,7.25
2023-01-02T13:27:25.052Z,7.07
2023-01-02T13:29:51.372Z,6.80
2023-01-02T13:32:17.721Z,6.53
2023-01-02T13:34:44.079Z,6.97
2023-01-02T13:37:10.398Z,7.18
2023-01-02T13:39:36.721Z,6.87
2023-01-02T13:42:22.081Z,7.03
2023-01-02T13:44:48.399Z,7.30
2023-01-02T13:47:20.744Z,7.03
2023-01-02T13:49:55.510Z,7.37
2023-01-02T13:52:21.846Z,7.07
2023-01-02T13:54:48.165Z,7.10
2023-01-02T13:57:14.459Z,6.78
2023-01-02T13:59:41.703Z,7.15
2023-01-02T14:02:09.874Z,7.07
2023-01-02T14:04:36.345Z,6.97
2023-01-02T14:07:02.684Z,7.55
2023-01-02T14:09:28.985Z,6.97
2023-01-02T14:11:57.515Z,7.80
2023-01-02T14:14:24.124Z,7.00
2023-01-02T14:16:50.512Z,7.30
2023-01-02T14:19:16.975Z,7.15
2023-01-02T14:21:43.297Z,6.70
2023-01-02T14:24:16.933Z,7.50
2023-01-02T14:26:44.926Z,6.45
2023-01-02T14:29:11.256Z,7.32
2023-01-02T14:31:37.683Z,6.40
2023-01-02T14:34:04.109Z,7.62
2023-01-02T14:36:30.432Z,6.70
2023-01-02T14:38:56.766Z,6.60
2023-01-02T14:41:42.004Z,7.37
2023-01-02T14:44:08.346Z,7.15
2023-01-02T14:46:34.748Z,7.10
2023-01-02T14:49:01.111Z,6.60
2023-01-02T14:51:27.427Z,7.28
2023-01-02T14:53:53.753Z,7.47
2023-01-02T14:56:20.090Z,7.03
2023-01-02T14:58:46.764Z,7.68
2023-01-02T15:01:13.276Z,7.22
2023-01-02T15:03:39.845Z,7.20
2023-01-02T15:06:06.275Z,7.47
2023-01-02T15:08:32.601Z,7.43
2023-01-02T15:10:59.008Z,6.37
2023-01-02T15:13:25.329Z,6.90
2023-01-02T15:15:53.649Z,7.40
2023-01-02T15:18:20.430Z,6.72
2023-01-02T15:20:46.761Z,7.65
2023-01-02T15:23:13.074Z,7.75
2023-01-02T15:25:39.511Z,7.37
2023-01-02T15:28:05.885Z,7.70
2023-01-02T15:30:34.597Z,7.60
2023-01-02T15:33:00.916Z,8.48
2023-01-02T15:35:27.256Z,7.50
2023-01-02T15:37:53.569Z,8.63
2023-01-02T15:40:19.915Z,7.53
2023-01-02T15:43:05.227Z,8.15
2023-01-02T15:45:31.577Z,7.95
2023-01-02T15:47:57.938Z,8.18
2023-01-02T15:50:24.304Z,8.23
2023-01-02T15:52:50.645Z,8.07
2023-01-02T15:55:17.008Z,8.07
2023-01-02T15:57:43.341Z,8.27
2023-01-02T16:00:09.650Z,8.38
2023-01-02T16:02:36.127Z,8.57
2023-01-02T16:05:02.512Z,9.15
2023-01-02T16:07:28.859Z,8.45
2023-01-02T16:09:55.244Z,7.97
2023-01-02T16:12:21.613Z,8.02
2023-01-02T16:14:49.451Z,8.05
2023-01-02T16:17:15.784Z,8.43
2023-01-02T16:19:42.118Z,8.65
2023-01-02T16:22:08.528Z,9.18
2023-01-02T16:24:35.407Z,8.25
2023-01-02T16:27:02.077Z,10.45
2023-01-02T16:29:28.419Z,10.32
2023-01-02T16:31:54.825Z,10.88
2023-01-02T16:34:21.187Z,9.40
2023-01-02T16:36:47.505Z,9.95
2023-01-02T16:39:13.855Z,9.27
2023-01-02T16:41:44.981Z,10.57
2023-01-02T16:44:12.634Z,9.05
2023-01-02T16:46:38.975Z,8.40
2023-01-02T16:49:05.685Z,8.75
2023-01-02T16:51:32.048Z,8.75
2023-01-02T16:53:58.373Z,8.95
2023-01-02T16:56:24.722Z,10.27
2023-01-02T16:58:51.048Z,9.50
2023-01-02T17:01:20.785Z,9.02
2023-01-02T17:03:47.314Z,9.88
2023-01-02T17:06:13.708Z,9.05
2023-01-02T17:08:40.114Z,8.98
2023-01-02T17:11:06.419Z,8.60
2023-01-02T17:13:32.719Z,7.45
2023-01-02T17:15:59.083Z,5.68
2023-01-02T17:18:25.621Z,5.20
2023-01-02T17:20:51.943Z,4.82
2023-01-02T17:23:19.600Z,3.92
2023-01-02T17:25:46.384Z,3.10
2023-01-02T17:28:12.716Z,3.22
2023-01-02T17:30:39.096Z,3.20
2023-01-02T17:33:05.404Z,3.15
2023-01-02T17:35:31.738Z,2.70
2023-01-02T17:37:58.099Z,3.67
2023-01-02T17:40:24.429Z,8.75
2023-01-02T17:42:50.764Z,9.32
2023-01-02T17:45:17.089Z,9.60
2023-01-02T17:48:05.640Z,10.30
2023-01-02T17:50:29.784Z,8.93
2023-01-02T17:52:56.168Z,10.77
2023-01-02T17:55:22.488Z,10.77
2023-01-02T17:57:48.883Z,10.55
2023-01-02T18:00:15.230Z,11.02
2023-01-02T18:02:41.665Z,9.68
2023-01-02T18:05:08.089Z,10.25
2023-01-02T18:07:34.406Z,10.27
2023-01-02T18:10:07.920Z,8.98
2023-01-02T18:12:37.871Z,9.43
2023-01-02T18:15:04.376Z,6.90
2023-01-02T18:17:30.685Z,7.12
2023-01-02T18:19:57.009Z,6.30
2023-01-02T18:22:26.425Z,5.80
2023-01-02T18:24:52.835Z,4.87
2023-01-02T18:27:19.187Z,4.68
2023-01-02T18:29:45.544Z,4.00
2023-01-02T18:32:11.898Z,3.85
2023-01-02T18:34:59.274Z,4.18
2023-01-02T18:37:28.189Z,3.50
2023-01-02T18:39:55.101Z,2.75
2023-01-02T18:42:21.457Z,2.95
2023-01-02T18:44:48.047Z,2.85
2023-01-02T18:47:14.378Z,2.37
2023-01-02T18:49:40.815Z,2.37
2023-01-02T18:52:07.201Z,2.87
2023-01-02T18:54:33.550Z,3.00
2023-01-02T18:56:59.907Z,2.55
2023-01-02T18:59:26.221Z,2.65
2023-01-02T19:01:52.904Z,2.45
2023-01-02T19:04:27.394Z,2.80
2023-01-02T19:06:54.797Z,2.05
2023-01-02T19:09:21.225Z,2.35
2023-01-02T19:12:06.325Z,2.58
2023-01-02T19:14:32.654Z,2.70
2023-01-02T19:16:59.018Z,2.50
2023-01-02T19:19:26.023Z,2.70
2023-01-02T19:21:52.461Z,2.87
2023-01-02T19:24:19.039Z,2.83
2023-01-02T19:26:45.469Z,2.97
2023-01-02T19:29:11.808Z,3.00
2023-01-02T19:31:38.142Z,3.20
2023-01-02T19:34:04.448Z,2.67
2023-01-02T19:36:30.880Z,2.90
2023-01-02T19:38:57.196Z,2.95
2023-01-02T19:41:43.481Z,2.97
2023-01-02T19:44:09.820Z,3.15
2023-01-02T19:46:36.203Z,2.97
2023-01-02T19:49:02.529Z,2.72
2023-01-02T19:51:32.242Z,3.03
2023-01-02T19:54:03.736Z,3.12
2023-01-02T19:56:30.721Z,2.70
2023-01-02T19:58:57.050Z,2.85
2023-01-02T20:01:23.556Z,2.67
2023-01-02T20:03:50.045Z,2.80
2023-01-02T20:06:16.425Z,2.70
2023-01-02T20:08:43.950Z,3.33
2023-01-02T20:11:30.264Z,2.50
2023-01-02T20:13:56.588Z,3.08
2023-01-02T20:16:22.940Z,3.03
2023-01-02T20:18:49.265Z,3.08
2023-01-02T20:21:15.575Z,2.95
2023-01-02T20:23:41.883Z,3.08
2023-01-02T20:26:08.503Z,3.05
2023-01-02T20:28:34.915Z,3.00
2023-01-02T20:31:01.264Z,2.80
2023-01-02T20:33:27.618Z,3.22
2023-01-02T20:35:53.945Z,3.10
2023-01-02T20:38:20.261Z,2.70
2023-01-02T20:40:46.646Z,2.45
2023-01-02T20:43:12.978Z,2.40
2023-01-02T20:45:39.335Z,1.83
2023-01-02T20:48:09.147Z,1.40
2023-01-02T20:50:35.454Z,1.30
2023-01-02T20:53:02.328Z,1.60
2023-01-02T20:55:28.701Z,1.40
2023-01-02T20:57:55.118Z,1.60
2023-01-02T21:00:21.513Z,1.75
2023-01-02T21:02:47.967Z,1.30
2023-01-02T21:05:14.515Z,1.40
2023-01-02T21:07:40.836Z,1.20
2023-01-02T21:10:07.142Z,1.20
2023-01-02T21:12:52.369Z,1.50
2023-01-02T21:15:37.679Z,1.42
2023-01-02T21:18:04.050Z,1.10
2023-01-02T21:20:30.354Z,1.30
2023-01-02T21:22:56.659Z,1.30
2023-01-02T21:25:22.958Z,1.00
2023-01-02T21:27:49.284Z,1.25
2023-01-02T21:30:15.622Z,1.45
2023-01-02T21:32:41.928Z,1.10
2023-01-02T21:35:08.237Z,1.40
2023-01-02T21:37:34.554Z,1.48
2023-01-02T21:40:01.303Z,1.33
2023-01-02T21:42:27.620Z,1.33
2023-01-02T21:44:53.940Z,1.45
2023-01-02T21:47:20.308Z,1.15
2023-01-02T21:49:46.636Z,1.42
2023-01-02T21:52:12.952Z,1.48
2023-01-02T21:54:39.287Z,1.60
2023-01-02T21:57:05.621Z,1.45
2023-01-02T21:59:31.934Z,1.50
2023-01-02T22:02:00.123Z,1.70
2023-01-02T22:04:26.607Z,1.60
2023-01-02T22:09:39.226Z,1.60
2023-01-02T22:12:07.296Z,1.40
2023-01-02T22:14:33.821Z,1.30
2023-01-02T22:17:00.178Z,1.52
2023-01-02T22:19:26.494Z,1.50
2023-01-02T22:21:52.798Z,1.42
2023-01-02T22:24:19.184Z,1.02
2023-01-02T22:26:45.520Z,1.10
2023-01-02T22:29:11.845Z,1.10
2023-01-02T22:31:38.271Z,1.40
2023-01-02T22:34:04.673Z,0.93
2023-01-02T22:36:31.635Z,1.12
2023-01-02T22:39:27.041Z,0.98
2023-01-02T22:41:47.415Z,1.12
2023-01-02T22:44:13.727Z,1.12
2023-01-02T22:46:40.146Z,1.00
2023-01-02T22:49:06.510Z,1.33
2023-01-02T22:52:05.497Z,1.23
2023-01-02T22:54:19.125Z,1.20
2023-01-02T22:56:45.468Z,1.30
2023-01-02T22:59:11.777Z,1.10
2023-01-02T23:01:38.313Z,1.60
2023-01-02T23:04:04.714Z,1.33
2023-01-02T23:06:31.114Z,1.60
2023-01-02T23:08:57.437Z,1.17
2023-01-02T23:11:23.789Z,1.30
2023-01-02T23:13:56.018Z,1.58
2023-01-02T23:16:41.924Z,1.10
2023-01-02T23:19:14.485Z,1.20
2023-01-02T23:21:42.208Z,1.33
2023-01-02T23:24:08.601Z,1.30
2023-01-02T23:26:34.950Z,1.17
2023-01-02T23:29:09.045Z,1.30
2023-01-02T23:31:35.671Z,1.30
2023-01-02T23:34:02.030Z,1.55
2023-01-02T23:36:28.446Z,1.40
2023-01-02T23:38:54.741Z,1.30
2023-01-02T23:41:21.111Z,1.60
2023-01-02T23:43:47.449Z,1.58
2023-01-02T23:46:13.857Z,1.23
2023-01-02T23:48:40.321Z,1.30
2023-01-02T23:51:06.761Z,1.55
2023-01-02T23:53:33.119Z,1.15
2023-01-02T23:55:59.415Z,1.58
2023-01-02T23:58:25.715Z,1.50
